Time;durP1;ratioP1;P1;durP2;ratioP2;P2;SDS_P1;SDS_P2;PMS_P1;PMS_P2;Temp;Humidity;BMP_temperature;BMP_pressure;BME280_temperature;BME280_humidity;BME280_pressure;Samples;Min_cycle;Max_cycle;Signal;HPM_P1;HPM_P2
2023/02/23 00:00:27;;;;;;;13.63;4.75;;;7.20;95.30;;;;;;5037275;28;20066;-63
2023/02/23 00:03:00;;;;;;;22.08;5.45;;;7.20;95.30;;;;;;5036897;28;20761;-63
2023/02/23 00:05:28;;;;;;;21.00;6.07;;;7.00;95.70;;;;;;5039443;28;20025;-62
2023/02/23 00:07:55;;;;;;;15.07;4.63;;;7.00;95.90;;;;;;5041240;28;20033;-63
2023/02/23 00:10:29;;;;;;;19.98;6.63;;;7.10;95.90;;;;;;5039030;28;20029;-62
2023/02/23 00:12:56;;;;;;;24.25;4.80;;;7.10;95.70;;;;;;5035154;28;20029;-62
2023/02/23 00:15:25;;;;;;;16.80;4.95;;;7.10;95.80;;;;;;5038782;28;20039;-63
2023/02/23 00:17:56;;;;;;;15.00;4.60;;;7.10;95.70;;;;;;5035905;28;20061;-60
2023/02/23 00:20:26;;;;;;;16.77;5.03;;;7.10;95.80;;;;;;5034954;28;20022;-63
2023/02/23 00:22:54;;;;;;;12.40;5.25;;;7.10;95.70;;;;;;5038136;28;20103;-63
2023/02/23 00:25:21;;;;;;;15.35;5.03;;;7.10;95.80;;;;;;5033965;28;20032;-61
2023/02/23 00:27:48;;;;;;;15.23;5.70;;;7.20;95.70;;;;;;5037097;28;20031;-60
2023/02/23 00:30:17;;;;;;;20.05;5.97;;;7.10;95.70;;;;;;5012807;28;20501;-63
2023/02/23 00:32:49;;;;;;;24.98;6.15;;;7.20;95.70;;;;;;5023330;28;20032;-59
2023/02/23 00:35:17;;;;;;;20.60;5.93;;;7.10;95.60;;;;;;5026210;28;20786;-63
2023/02/23 00:37:47;;;;;;;18.17;5.47;;;7.10;95.70;;;;;;5042921;28;20549;-63
2023/02/23 00:40:15;;;;;;;21.50;6.45;;;7.00;95.90;;;;;;5042053;28;20162;-62
2023/02/23 00:42:44;;;;;;;17.75;5.63;;;7.00;95.90;;;;;;5037020;28;20210;-61
2023/02/23 00:45:11;;;;;;;20.55;5.63;;;7.00;96.00;;;;;;5040591;28;20028;-63
2023/02/23 00:47:39;;;;;;;18.75;6.15;;;7.00;96.20;;;;;;5017844;28;20030;-63
2023/02/23 00:50:06;;;;;;;18.38;5.95;;;7.00;96.20;;;;;;5033601;28;20403;-63
2023/02/23 00:52:32;;;;;;;19.40;6.72;;;6.90;96.30;;;;;;5028445;28;20037;-63
2023/02/23 00:55:01;;;;;;;22.30;6.18;;;6.90;96.20;;;;;;5014619;28;20060;-62
2023/02/23 00:57:27;;;;;;;13.90;5.57;;;6.90;96.30;;;;;;5018525;28;20840;-63
2023/02/23 00:59:53;;;;;;;19.73;6.15;;;6.90;96.40;;;;;;5032754;28;20057;-63
2023/02/23 01:02:19;;;;;;;19.08;5.40;;;6.80;96.50;;;;;;5034267;28;21025;-63
2023/02/23 01:04:44;;;;;;;16.38;6.13;;;6.70;96.70;;;;;;5033717;28;20155;-63
2023/02/23 01:07:11;;;;;;;19.63;6.28;;;6.80;96.90;;;;;;5015581;28;20024;-63
2023/02/23 01:09:37;;;;;;;27.05;6.25;;;6.70;96.80;;;;;;5033087;28;20091;-63
2023/02/23 01:12:06;;;;;;;22.60;6.18;;;6.60;97.00;;;;;;5035348;28;20029;-63
2023/02/23 01:14:34;;;;;;;25.05;7.13;;;6.70;97.00;;;;;;5016918;28;20900;-62
2023/02/23 01:17:00;;;;;;;25.42;6.70;;;6.70;96.90;;;;;;5010492;28;20043;-63
2023/02/23 01:19:26;;;;;;;18.05;6.82;;;6.70;97.00;;;;;;5021028;28;20492;-63
2023/02/23 01:21:51;;;;;;;22.58;6.68;;;6.70;97.00;;;;;;5032535;28;20649;-63
2023/02/23 01:24:17;;;;;;;26.65;7.28;;;6.70;96.90;;;;;;5023859;28;20029;-63
2023/02/23 01:26:44;;;;;;;13.95;6.10;;;6.70;96.90;;;;;;5037708;28;20029;-63
2023/02/23 01:29:13;;;;;;;17.70;5.95;;;6.70;97.10;;;;;;5034267;28;20044;-63
2023/02/23 01:31:43;;;;;;;21.20;6.85;;;6.70;97.10;;;;;;5018065;28;20379;-62
2023/02/23 01:34:11;;;;;;;22.27;7.30;;;6.70;97.40;;;;;;5030351;28;20902;-63
2023/02/23 01:36:38;;;;;;;17.88;7.32;;;6.70;97.20;;;;;;5009676;28;20747;-63
2023/02/23 01:39:06;;;;;;;25.20;6.75;;;6.70;97.20;;;;;;5015902;28;20279;-63
2023/02/23 01:41:34;;;;;;;23.02;7.00;;;6.80;97.10;;;;;;5032272;28;20025;-63
2023/02/23 01:44:12;;;;;;;22.42;6.90;;;6.80;97.00;;;;;;5021691;28;20136;-62
2023/02/23 01:46:45;;;;;;;24.50;6.65;;;6.80;97.00;;;;;;5032798;28;20033;-62
2023/02/23 01:49:21;;;;;;;28.67;8.10;;;6.80;96.90;;;;;;5018571;28;20032;-63
2023/02/23 01:52:11;;;;;;;24.80;7.22;;;6.80;96.70;;;;;;5029924;28;20113;-62
2023/02/23 01:54:50;;;;;;;25.13;8.35;;;6.80;97.00;;;;;;5019379;28;20041;-63
2023/02/23 01:57:19;;;;;;;24.52;7.35;;;6.70;97.10;;;;;;5031415;28;20120;-61
2023/02/23 01:59:48;;;;;;;17.50;6.70;;;6.60;97.30;;;;;;5011341;28;20529;-63
2023/02/23 02:02:16;;;;;;;19.75;7.40;;;6.60;97.50;;;;;;5036484;28;20633;-62
2023/02/23 02:04:43;;;;;;;34.38;8.02;;;6.60;97.80;;;;;;5022656;28;20602;-62
2023/02/23 02:07:22;;;;;;;21.42;6.80;;;6.60;97.40;;;;;;5017096;28;21004;-62
2023/02/23 02:10:54;;;;;;;21.17;7.10;;;6.60;97.50;;;;;;5021422;28;20037;-63
2023/02/23 02:12:56;;;;;;;23.73;6.88;;;6.60;97.40;;;;;;5008565;28;20041;-62
2023/02/23 02:15:26;;;;;;;26.30;8.60;;;6.60;97.60;;;;;;5034213;28;20021;-62
2023/02/23 02:18:17;;;;;;;22.30;7.70;;;6.60;97.40;;;;;;5015299;28;20033;-62
2023/02/23 02:21:10;;;;;;;20.92;7.97;;;6.50;97.50;;;;;;5030684;28;20147;-62
2023/02/23 02:24:07;;;;;;;24.27;8.07;;;6.50;97.80;;;;;;5011509;28;20029;-62
2023/02/23 02:26:47;;;;;;;24.33;8.15;;;6.50;97.90;;;;;;5022160;28;20401;-63
2023/02/23 02:29:19;;;;;;;24.45;8.40;;;6.50;97.80;;;;;;5031980;28;20110;-63
2023/02/23 02:32:09;;;;;;;22.15;7.97;;;6.50;97.90;;;;;;5013053;28;20040;-62
2023/02/23 02:35:13;;;;;;;26.00;8.70;;;6.50;98.00;;;;;;5033170;28;20488;-63
2023/02/23 02:38:20;;;;;;;26.25;9.88;;;6.40;98.00;;;;;;5030760;28;20032;-63
2023/02/23 02:40:57;;;;;;;21.40;9.68;;;6.30;98.20;;;;;;5016032;28;20115;-62
2023/02/23 02:43:29;;;;;;;27.10;8.48;;;6.40;98.60;;;;;;5010371;28;20662;-64
2023/02/23 02:46:03;;;;;;;22.05;8.18;;;6.40;98.40;;;;;;5034357;28;20561;-63
2023/02/23 02:48:29;;;;;;;24.50;8.57;;;6.30;98.60;;;;;;5029372;28;20033;-63
2023/02/23 02:51:08;;;;;;;26.00;8.43;;;6.30;98.70;;;;;;5016255;28;20825;-62
2023/02/23 02:53:49;;;;;;;31.98;9.45;;;6.30;98.50;;;;;;5016430;28;20030;-63
2023/02/23 02:56:18;;;;;;;27.40;9.32;;;6.40;98.40;;;;;;5032022;28;20041;-62
2023/02/23 02:58:48;;;;;;;26.70;9.50;;;6.40;98.50;;;;;;5010305;28;20156;-62
2023/02/23 04:19:27;;;;;;;32.00;10.57;;;6.10;99.10;;;;;;5034685;28;20028;-63
2023/02/23 04:21:53;;;;;;;32.67;11.35;;;6.00;99.10;;;;;;5032661;28;20473;-62
2023/02/23 04:24:18;;;;;;;28.33;10.85;;;5.90;99.20;;;;;;5028987;28;20030;-63
2023/02/23 04:26:44;;;;;;;31.95;10.68;;;6.00;99.20;;;;;;5030996;28;20029;-62
2023/02/23 04:29:11;;;;;;;22.55;9.95;;;6.00;99.10;;;;;;5029655;28;20083;-62
2023/02/23 04:31:37;;;;;;;27.75;9.65;;;6.00;99.00;;;;;;5030542;28;20719;-63
2023/02/23 04:34:03;;;;;;;21.88;10.00;;;6.00;99.00;;;;;;5016402;28;20029;-62
2023/02/23 04:36:30;;;;;;;28.40;10.18;;;6.00;99.00;;;;;;5032821;28;20758;-62
2023/02/23 04:38:55;;;;;;;29.58;10.98;;;6.10;99.10;;;;;;5034139;28;20580;-63
2023/02/23 04:41:22;;;;;;;28.17;10.93;;;6.10;99.00;;;;;;5030777;28;20037;-63
2023/02/23 04:43:48;;;;;;;25.67;9.45;;;6.10;99.10;;;;;;5030751;28;20030;-63
2023/02/23 04:46:13;;;;;;;29.85;10.43;;;6.10;99.10;;;;;;5033601;28;20413;-62
2023/02/23 04:48:39;;;;;;;28.60;10.90;;;6.00;99.00;;;;;;5036475;28;20034;-63
2023/02/23 04:51:05;;;;;;;29.85;10.70;;;6.00;99.00;;;;;;5036978;28;20101;-63
2023/02/23 04:53:31;;;;;;;27.33;9.82;;;6.00;98.90;;;;;;5034999;28;20550;-64
2023/02/23 04:55:57;;;;;;;27.95;10.55;;;6.00;98.90;;;;;;5040090;28;20029;-62
2023/02/23 04:58:22;;;;;;;27.63;9.68;;;6.00;98.80;;;;;;5040943;28;20075;-64
2023/02/23 05:00:48;;;;;;;24.95;10.32;;;6.10;98.80;;;;;;5033740;28;20136;-63
2023/02/23 05:03:16;;;;;;;27.95;10.30;;;6.10;98.70;;;;;;5045118;28;20033;-63
2023/02/23 05:05:43;;;;;;;26.83;9.98;;;6.10;98.70;;;;;;5037099;28;20325;-63
2023/02/23 05:08:09;;;;;;;31.23;10.13;;;6.00;98.80;;;;;;5035616;28;20112;-62
2023/02/23 05:10:34;;;;;;;24.83;9.63;;;6.00;98.80;;;;;;5032355;28;20033;-62
2023/02/23 05:13:00;;;;;;;25.00;9.40;;;5.90;99.10;;;;;;5039930;28;20041;-62
2023/02/23 05:15:26;;;;;;;23.15;9.88;;;5.90;99.10;;;;;;5020551;28;20099;-62
2023/02/23 05:17:54;;;;;;;26.85;11.60;;;5.90;99.00;;;;;;5029308;28;20136;-62
2023/02/23 05:20:21;;;;;;;28.00;11.25;;;5.90;99.00;;;;;;5031630;28;20485;-62
2023/02/23 05:22:46;;;;;;;27.40;11.18;;;5.80;99.00;;;;;;5027290;28;20022;-63
2023/02/23 05:25:12;;;;;;;26.35;10.63;;;5.90;99.10;;;;;;5033896;28;20861;-62
2023/02/23 05:27:39;;;;;;;35.55;10.98;;;5.90;99.30;;;;;;5031088;28;20056;-62
2023/02/23 05:30:06;;;;;;;19.92;10.25;;;5.90;99.00;;;;;;5032599;28;20025;-63
2023/02/23 05:32:33;;;;;;;27.00;10.10;;;5.90;98.90;;;;;;5033392;28;20037;-64
2023/02/23 05:35:00;;;;;;;32.05;11.18;;;5.90;98.80;;;;;;5038316;28;20033;-62
2023/02/23 05:37:25;;;;;;;32.05;10.75;;;5.80;99.10;;;;;;5030819;28;20485;-63
2023/02/23 05:39:51;;;;;;;23.42;9.88;;;5.80;99.20;;;;;;5030092;28;20072;-62
2023/02/23 05:42:17;;;;;;;31.15;11.00;;;5.70;99.00;;;;;;5028059;28;20063;-63
2023/02/23 05:44:43;;;;;;;28.85;11.35;;;5.70;99.30;;;;;;5032283;28;20032;-62
2023/02/23 05:47:09;;;;;;;30.33;10.73;;;5.70;99.50;;;;;;5034490;28;20025;-62
2023/02/23 05:49:36;;;;;;;27.55;10.23;;;5.70;99.40;;;;;;5033057;28;20056;-62
2023/02/23 05:52:01;;;;;;;30.95;11.65;;;5.70;99.30;;;;;;5029641;28;20047;-62
2023/02/23 05:54:27;;;;;;;38.92;11.32;;;5.70;99.30;;;;;;5033808;28;20213;-62
2023/02/23 05:56:53;;;;;;;27.40;10.38;;;5.60;99.30;;;;;;5034698;28;20029;-62
2023/02/23 05:59:18;;;;;;;25.42;10.40;;;5.60;99.30;;;;;;5032514;28;20036;-62
2023/02/23 06:01:44;;;;;;;29.85;11.13;;;5.70;99.10;;;;;;5030696;28;20032;-62
2023/02/23 06:04:10;;;;;;;22.30;10.07;;;5.60;99.20;;;;;;5036933;28;20028;-62
2023/02/23 06:06:36;;;;;;;31.75;10.95;;;5.60;99.20;;;;;;5035267;28;20044;-62
2023/02/23 06:09:03;;;;;;;23.80;10.88;;;5.60;99.40;;;;;;5034459;28;20048;-62
2023/02/23 06:11:29;;;;;;;25.88;10.07;;;5.60;99.40;;;;;;5037464;28;20065;-62
2023/02/23 06:13:58;;;;;;;26.15;10.15;;;5.60;99.40;;;;;;5030072;28;20055;-63
2023/02/23 06:16:24;;;;;;;30.10;11.18;;;5.60;99.40;;;;;;5037723;28;20106;-62
2023/02/23 06:18:50;;;;;;;26.95;11.68;;;5.70;99.50;;;;;;5036216;28;20650;-62
2023/02/23 06:21:16;;;;;;;26.05;11.02;;;5.60;99.50;;;;;;5035342;28;20021;-63
2023/02/23 06:23:42;;;;;;;33.08;11.40;;;5.70;99.70;;;;;;5036649;28;20067;-62
2023/02/23 06:26:08;;;;;;;23.67;10.40;;;5.70;99.60;;;;;;5034780;28;20085;-62
2023/02/23 06:28:34;;;;;;;25.45;11.63;;;5.70;99.50;;;;;;5036638;28;20112;-63
2023/02/23 06:31:00;;;;;;;31.77;11.43;;;5.80;99.60;;;;;;5034835;28;20068;-62
2023/02/23 06:33:25;;;;;;;27.10;10.55;;;5.80;99.40;;;;;;5031641;28;20542;-62
2023/02/23 06:35:53;;;;;;;23.88;10.90;;;5.90;99.40;;;;;;5018096;28;20079;-62
2023/02/23 06:38:19;;;;;;;27.33;11.45;;;5.90;99.30;;;;;;5033695;28;20033;-62
2023/02/23 06:40:45;;;;;;;28.02;11.35;;;6.00;99.20;;;;;;5034619;28;20021;-63
2023/02/23 06:43:11;;;;;;;29.20;11.63;;;6.00;99.10;;;;;;5032969;28;20033;-62
2023/02/23 06:45:36;;;;;;;27.13;11.65;;;6.00;99.20;;;;;;5030221;28;20720;-62
2023/02/23 06:48:02;;;;;;;27.05;11.85;;;6.00;99.20;;;;;;5029725;28;20164;-62
2023/02/23 06:50:28;;;;;;;26.75;11.02;;;6.00;99.10;;;;;;5033216;28;20060;-62
2023/02/23 06:52:56;;;;;;;31.13;10.73;;;6.00;99.00;;;;;;5033794;28;20116;-62
2023/02/23 06:55:22;;;;;;;29.20;11.40;;;6.00;99.00;;;;;;5033342;28;20480;-62
2023/02/23 06:57:50;;;;;;;27.48;11.57;;;6.10;99.00;;;;;;5033968;28;20113;-62
2023/02/23 07:00:17;;;;;;;30.92;11.88;;;6.00;99.20;;;;;;5032692;28;20073;-62
2023/02/23 07:02:43;;;;;;;28.70;11.70;;;6.10;99.10;;;;;;5026248;28;20072;-63
2023/02/23 07:05:09;;;;;;;30.20;10.55;;;6.10;99.00;;;;;;5025329;28;20032;-63
2023/02/23 07:07:36;;;;;;;29.77;12.23;;;6.20;99.00;;;;;;5031549;28;20037;-63
2023/02/23 07:10:03;;;;;;;32.22;12.23;;;6.20;98.80;;;;;;5028360;28;20122;-63
2023/02/23 07:12:30;;;;;;;26.58;11.82;;;6.20;98.80;;;;;;5036229;28;20033;-63
2023/02/23 07:14:56;;;;;;;25.83;10.98;;;6.20;98.60;;;;;;5039066;28;20041;-63
2023/02/23 07:17:22;;;;;;;26.17;10.85;;;6.20;98.80;;;;;;5034521;28;20041;-63
2023/02/23 07:19:48;;;;;;;27.88;11.35;;;6.20;98.80;;;;;;5022292;28;20598;-62
2023/02/23 07:22:13;;;;;;;23.83;11.38;;;6.30;98.80;;;;;;5033474;28;20021;-63
2023/02/23 07:24:39;;;;;;;29.15;11.18;;;6.30;98.60;;;;;;5034734;28;20018;-63
2023/02/23 07:27:05;;;;;;;29.02;10.60;;;6.40;98.50;;;;;;5033677;28;20036;-63
2023/02/23 07:29:31;;;;;;;25.63;11.43;;;6.50;98.40;;;;;;5036987;28;20029;-64
2023/02/23 07:31:56;;;;;;;32.95;11.63;;;6.50;98.40;;;;;;5037350;28;20033;-64
2023/02/23 07:34:22;;;;;;;27.58;12.07;;;6.60;98.20;;;;;;5031837;28;20044;-64
2023/02/23 07:36:48;;;;;;;31.60;11.52;;;6.60;98.10;;;;;;5033974;28;20140;-64
2023/02/23 07:39:14;;;;;;;28.02;12.40;;;6.60;98.10;;;;;;5033423;28;20044;-63
2023/02/23 07:41:40;;;;;;;34.55;12.30;;;6.70;98.00;;;;;;5035433;28;20473;-63
2023/02/23 07:44:16;;;;;;;31.35;12.13;;;6.70;97.90;;;;;;5019422;28;20091;-64
2023/02/23 07:46:42;;;;;;;28.60;11.70;;;6.70;97.90;;;;;;5029508;28;20136;-63
2023/02/23 07:49:08;;;;;;;34.80;11.52;;;6.80;97.70;;;;;;5029789;28;20029;-62
2023/02/23 07:51:34;;;;;;;33.45;10.93;;;6.80;97.70;;;;;;5031628;28;20033;-63
2023/02/23 07:54:03;;;;;;;25.33;11.27;;;6.90;97.70;;;;;;5032507;28;20719;-63
2023/02/23 07:56:29;;;;;;;31.58;11.25;;;7.00;97.40;;;;;;5031277;28;20070;-63
2023/02/23 07:58:55;;;;;;;26.92;11.18;;;7.10;97.50;;;;;;5028922;28;20045;-63
2023/02/23 08:01:21;;;;;;;26.70;11.77;;;7.20;97.60;;;;;;5032381;28;20021;-61
2023/02/23 08:03:50;;;;;;;24.58;10.43;;;7.20;97.30;;;;;;5027763;28;20025;-62
2023/02/23 08:06:18;;;;;;;28.00;10.55;;;7.30;97.10;;;;;;5030502;28;20044;-64
2023/02/23 08:08:44;;;;;;;26.45;11.52;;;7.30;96.90;;;;;;5025417;28;20235;-63
2023/02/23 08:11:10;;;;;;;29.80;11.68;;;7.30;96.90;;;;;;5029095;28;20473;-63
2023/02/23 08:13:36;;;;;;;27.80;10.95;;;7.30;96.70;;;;;;5027153;28;20052;-62
2023/02/23 08:16:03;;;;;;;26.85;10.60;;;7.40;96.70;;;;;;5030260;28;20037;-62
2023/02/23 08:18:29;;;;;;;28.38;11.75;;;7.30;96.70;;;;;;5026758;28;20029;-63
2023/02/23 08:21:00;;;;;;;26.70;11.75;;;7.40;96.90;;;;;;5026238;28;20072;-63
2023/02/23 08:23:28;;;;;;;28.83;11.65;;;7.50;96.90;;;;;;5031844;28;20770;-62
2023/02/23 08:25:54;;;;;;;25.20;10.95;;;7.50;96.70;;;;;;5036820;28;20029;-63
2023/02/23 08:28:20;;;;;;;33.35;11.65;;;7.60;96.70;;;;;;5033756;28;20032;-63
2023/02/23 08:30:45;;;;;;;31.02;11.45;;;7.60;96.80;;;;;;5040692;28;20033;-64
2023/02/23 08:33:11;;;;;;;24.35;10.52;;;7.70;96.70;;;;;;5032192;28;20427;-64
2023/02/23 08:35:37;;;;;;;25.05;10.90;;;7.80;96.30;;;;;;5039516;28;20044;-63
2023/02/23 08:38:03;;;;;;;28.83;10.68;;;7.90;96.50;;;;;;5033503;28;20052;-63
2023/02/23 08:40:29;;;;;;;30.70;10.65;;;8.00;96.40;;;;;;5036591;28;20033;-62
2023/02/23 08:42:55;;;;;;;22.15;10.95;;;8.00;96.20;;;;;;5031989;28;20028;-62
2023/02/23 08:45:20;;;;;;;27.77;11.02;;;8.00;96.00;;;;;;5032958;28;20028;-62
2023/02/23 08:47:46;;;;;;;27.60;10.70;;;8.10;95.90;;;;;;5037471;28;20029;-63
2023/02/23 08:50:14;;;;;;;26.77;10.68;;;8.20;95.80;;;;;;5036567;28;20029;-63
2023/02/23 08:52:40;;;;;;;27.65;11.07;;;8.20;95.80;;;;;;5037738;28;20847;-63
2023/02/23 08:55:07;;;;;;;24.05;10.52;;;8.20;95.80;;;;;;5040720;28;20075;-63
2023/02/23 08:57:34;;;;;;;26.02;10.38;;;8.30;96.00;;;;;;5032652;28;20041;-62
2023/02/23 09:00:00;;;;;;;24.27;10.23;;;8.40;95.80;;;;;;5031111;28;20037;-63
2023/02/23 09:02:27;;;;;;;28.00;10.85;;;8.50;95.70;;;;;;5033034;28;20127;-63
2023/02/23 09:04:54;;;;;;;25.35;11.05;;;8.60;95.40;;;;;;5032618;28;20029;-63
2023/02/23 09:07:21;;;;;;;23.15;11.43;;;8.70;95.40;;;;;;5032709;28;20039;-63
2023/02/23 09:09:57;;;;;;;24.55;10.90;;;8.80;95.00;;;;;;5037167;28;20144;-62
2023/02/23 09:12:23;;;;;;;29.05;10.60;;;8.80;95.00;;;;;;5034674;28;20036;-64
2023/02/23 09:14:50;;;;;;;31.45;10.48;;;9.00;94.90;;;;;;5036552;28;20041;-63
2023/02/23 09:17:17;;;;;;;24.75;11.60;;;9.20;94.60;;;;;;5034977;28;20044;-64
2023/02/23 09:19:43;;;;;;;25.55;11.27;;;9.40;94.00;;;;;;5042529;28;20029;-63
2023/02/23 09:22:09;;;;;;;25.88;11.13;;;9.60;93.70;;;;;;5039444;28;20029;-64
2023/02/23 09:24:34;;;;;;;26.95;11.05;;;9.80;93.20;;;;;;5040004;28;20785;-63
2023/02/23 09:27:00;;;;;;;25.65;11.80;;;10.10;93.00;;;;;;5038165;28;20490;-64
2023/02/23 09:29:26;;;;;;;28.55;11.13;;;10.40;92.10;;;;;;5036833;28;20033;-63
2023/02/23 09:31:52;;;;;;;29.67;10.85;;;10.70;91.60;;;;;;5033337;28;20029;-62
2023/02/23 09:34:20;;;;;;;28.85;11.13;;;11.00;91.00;;;;;;5037120;28;20037;-63
2023/02/23 09:36:46;;;;;;;26.15;10.65;;;11.10;90.80;;;;;;5038608;28;20488;-63
2023/02/23 09:39:12;;;;;;;23.98;11.75;;;11.30;91.00;;;;;;5034267;28;20148;-63
2023/02/23 09:41:58;;;;;;;23.23;11.05;;;11.30;90.60;;;;;;5035853;28;20058;-63
2023/02/23 09:44:32;;;;;;;24.97;12.00;;;11.50;90.60;;;;;;5037859;28;20060;-63
2023/02/23 09:47:04;;;;;;;22.85;11.10;;;11.70;90.40;;;;;;5031396;28;20272;-63
2023/02/23 09:49:36;;;;;;;35.15;12.75;;;11.80;90.00;;;;;;5028140;28;20030;-63
2023/02/23 09:52:04;;;;;;;24.40;11.65;;;11.90;88.50;;;;;;5037464;28;20040;-63
2023/02/23 09:54:33;;;;;;;27.92;12.02;;;12.00;88.00;;;;;;5036866;28;20033;-63
2023/02/23 09:57:03;;;;;;;27.40;11.60;;;12.10;87.10;;;;;;5036815;28;20800;-62
2023/02/23 09:59:30;;;;;;;26.05;12.15;;;12.20;87.50;;;;;;5035689;28;20062;-63
2023/02/23 10:02:22;;;;;;;22.58;11.43;;;12.20;87.70;;;;;;5030615;28;20601;-63
2023/02/23 10:05:10;;;;;;;23.80;11.18;;;12.20;88.10;;;;;;5030763;28;20045;-63
2023/02/23 10:07:44;;;;;;;27.45;11.82;;;12.10;88.00;;;;;;5034308;28;20033;-62
2023/02/23 10:10:27;;;;;;;22.55;11.52;;;12.20;88.70;;;;;;5031413;28;20865;-64
2023/02/23 10:12:58;;;;;;;21.83;10.73;;;12.30;88.70;;;;;;5027155;28;20029;-63
2023/02/23 10:15:33;;;;;;;26.63;12.18;;;12.50;87.70;;;;;;5034300;28;20032;-62
2023/02/23 10:18:20;;;;;;;23.55;12.02;;;12.70;86.70;;;;;;5031999;28;20051;-63
2023/02/23 10:21:12;;;;;;;32.78;13.85;;;12.90;86.10;;;;;;5030638;28;20033;-63
2023/02/23 10:23:40;;;;;;;29.13;13.40;;;13.20;85.80;;;;;;5028266;28;20025;-62
2023/02/23 10:26:12;;;;;;;25.80;13.25;;;13.30;85.50;;;;;;5031055;28;20040;-62
2023/02/23 10:28:38;;;;;;;25.33;11.85;;;13.30;84.60;;;;;;5031433;28;20044;-62
2023/02/23 10:31:26;;;;;;;34.15;17.30;;;13.20;85.10;;;;;;5033306;28;20581;-62
2023/02/23 10:33:56;;;;;;;28.10;13.52;;;12.90;85.70;;;;;;5032826;28;20039;-62
2023/02/23 10:36:46;;;;;;;35.25;19.33;;;12.90;87.40;;;;;;5037403;28;20548;-62
2023/02/23 10:39:13;;;;;;;27.75;14.35;;;12.80;87.60;;;;;;5027477;28;20033;-63
2023/02/23 10:41:40;;;;;;;23.67;13.07;;;12.70;88.10;;;;;;5035971;28;20020;-62
2023/02/23 10:44:16;;;;;;;28.67;13.80;;;12.60;89.00;;;;;;5028386;28;20033;-62
2023/02/23 10:46:44;;;;;;;33.42;16.60;;;13.00;88.60;;;;;;5030964;28;20033;-62
2023/02/23 10:49:23;;;;;;;29.40;15.80;;;13.40;87.40;;;;;;5028581;28;20045;-62
2023/02/23 10:51:51;;;;;;;25.05;14.00;;;13.90;85.10;;;;;;5029083;28;20036;-62
2023/02/23 10:54:36;;;;;;;36.55;18.60;;;14.00;83.80;;;;;;5032004;28;20040;-62
2023/02/23 10:57:05;;;;;;;66.18;27.48;;;13.80;84.80;;;;;;5031929;28;20045;-63
2023/02/23 10:59:32;;;;;;;44.05;23.30;;;13.50;86.60;;;;;;5027877;28;20029;-64
2023/02/23 11:01:58;;;;;;;49.55;24.52;;;13.20;87.90;;;;;;5029856;28;20060;-63
2023/02/23 11:04:27;;;;;;;36.95;17.23;;;13.00;89.20;;;;;;5030471;28;20055;-61
2023/02/23 11:07:07;;;;;;;66.80;31.42;;;12.90;89.60;;;;;;5028897;28;20040;-60
2023/02/23 11:09:34;;;;;;;53.35;26.25;;;12.60;90.50;;;;;;5028638;28;20029;-61
2023/02/23 11:12:06;;;;;;;45.10;25.52;;;12.40;91.00;;;;;;5031101;28;20037;-62
2023/02/23 11:14:32;;;;;;;79.03;30.20;;;12.30;91.70;;;;;;5023823;28;20044;-61
2023/02/23 11:16:59;;;;;;;55.38;23.80;;;12.20;91.90;;;;;;5031357;28;20068;-64
2023/02/23 11:19:33;;;;;;;44.00;19.90;;;12.10;92.50;;;;;;5032166;28;20028;-63
2023/02/23 11:22:00;;;;;;;31.13;15.27;;;12.10;92.90;;;;;;5033969;28;20601;-63
2023/02/23 11:24:31;;;;;;;36.53;17.45;;;12.10;93.20;;;;;;5033508;28;20769;-63
2023/02/23 11:27:02;;;;;;;30.90;15.07;;;12.20;92.60;;;;;;5032797;28;20032;-63
2023/02/23 11:29:41;;;;;;;22.55;12.80;;;12.30;92.60;;;;;;5030921;28;20029;-62
2023/02/23 11:32:08;;;;;;;29.60;14.73;;;12.50;92.60;;;;;;5033463;28;20032;-64
2023/02/23 11:34:39;;;;;;;31.92;15.77;;;12.80;92.80;;;;;;5034489;28;20029;-62
2023/02/23 11:37:20;;;;;;;21.88;13.32;;;12.80;92.30;;;;;;5032694;28;20133;-64
2023/02/23 11:39:56;;;;;;;28.55;13.88;;;13.00;92.20;;;;;;5035371;28;20029;-62
2023/02/23 11:42:26;;;;;;;27.95;14.90;;;13.20;91.90;;;;;;5032494;28;20075;-62
2023/02/23 11:45:18;;;;;;;29.42;16.60;;;13.30;91.80;;;;;;5031844;28;20029;-64
2023/02/23 11:47:46;;;;;;;29.42;15.93;;;13.30;91.50;;;;;;5032723;28;20436;-63
2023/02/23 11:50:27;;;;;;;26.30;15.25;;;13.20;91.70;;;;;;5030523;28;20032;-64
2023/02/23 11:53:18;;;;;;;26.05;14.25;;;13.30;91.80;;;;;;5033795;28;20039;-66
2023/02/23 11:55:53;;;;;;;23.88;12.25;;;13.30;91.90;;;;;;5021023;28;20471;-63
2023/02/23 11:58:25;;;;;;;29.00;14.17;;;13.40;91.90;;;;;;5032763;28;20404;-65
2023/02/23 12:01:16;;;;;;;43.05;23.67;;;13.50;91.60;;;;;;5036771;28;20357;-64
2023/02/23 12:03:54;;;;;;;29.08;17.33;;;13.60;91.20;;;;;;5022684;28;20033;-63
2023/02/23 12:06:38;;;;;;;37.88;22.85;;;13.70;91.30;;;;;;5033937;28;20055;-63
2023/02/23 12:09:26;;;;;;;34.80;18.98;;;13.70;90.80;;;;;;5038524;28;20383;-64
2023/02/23 12:12:09;;;;;;;35.13;20.38;;;13.60;91.50;;;;;;5037876;28;20040;-63
2023/02/23 12:14:50;;;;;;;37.03;18.63;;;13.50;91.90;;;;;;5038309;28;20036;-64
2023/02/23 12:17:28;;;;;;;36.53;17.80;;;13.30;92.10;;;;;;5033589;28;20119;-64
2023/02/23 12:19:59;;;;;;;30.20;17.60;;;13.40;92.70;;;;;;5033873;28;20894;-64
2023/02/23 12:22:34;;;;;;;32.88;16.20;;;13.40;92.70;;;;;;5032098;28;20182;-63
2023/02/23 12:25:00;;;;;;;32.58;17.75;;;13.50;92.50;;;;;;5034373;28;20037;-64
2023/02/23 12:27:33;;;;;;;29.90;17.27;;;13.50;92.40;;;;;;5036895;28;20044;-64
2023/02/23 12:30:08;;;;;;;32.60;18.20;;;13.60;92.40;;;;;;5034887;28;20033;-63
2023/02/23 12:32:37;;;;;;;37.27;19.23;;;13.50;92.30;;;;;;5032041;28;20029;-63
2023/02/23 12:35:33;;;;;;;57.15;27.05;;;13.50;92.60;;;;;;5031629;28;20048;-64
2023/02/23 12:38:16;;;;;;;39.72;21.02;;;13.50;92.70;;;;;;4989459;28;20048;-64
2023/02/23 12:40:43;;;;;;;42.80;21.95;;;13.50;93.00;;;;;;5036377;28;20115;-64
2023/02/23 12:43:16;;;;;;;34.97;19.50;;;13.60;92.80;;;;;;5031919;28;20464;-64
2023/02/23 12:45:54;;;;;;;36.08;18.83;;;13.60;93.00;;;;;;5033499;28;20021;-64
2023/02/23 12:48:55;;;;;;;36.55;20.67;;;13.70;92.80;;;;;;5032662;28;20030;-64
2023/02/23 12:51:46;;;;;;;35.45;19.00;;;13.70;92.30;;;;;;5033561;28;20892;-64
2023/02/23 12:54:15;;;;;;;29.05;16.42;;;13.70;92.60;;;;;;5032038;28;20040;-64
2023/02/23 12:56:50;;;;;;;27.20;15.52;;;13.60;92.70;;;;;;5031320;28;20032;-64
2023/02/23 12:59:55;;;;;;;30.02;16.70;;;13.60;93.00;;;;;;5028354;28;20138;-64
2023/02/23 13:02:51;;;;;;;33.83;19.98;;;13.60;92.90;;;;;;5033333;28;20021;-65
2023/02/23 13:05:40;;;;;;;33.45;18.80;;;13.60;92.90;;;;;;5032977;28;20025;-63
2023/02/23 13:08:12;;;;;;;40.65;21.25;;;13.60;93.10;;;;;;5031932;28;20120;-65
2023/02/23 13:10:50;;;;;;;41.65;21.70;;;13.60;93.10;;;;;;5014722;28;20068;-63
2023/02/23 13:13:21;;;;;;;39.10;20.70;;;13.60;93.10;;;;;;5032164;28;20037;-63
2023/02/23 13:16:28;;;;;;;52.00;25.40;;;13.50;93.30;;;;;;5018980;28;20033;-63
2023/02/23 13:19:23;;;;;;;39.55;23.02;;;13.40;93.70;;;;;;5029345;28;20064;-64
2023/02/23 13:22:18;;;;;;;45.10;22.48;;;13.30;93.80;;;;;;5034646;28;20068;-63
2023/02/23 13:24:48;;;;;;;38.78;20.38;;;13.20;94.10;;;;;;5032364;28;20041;-63
2023/02/23 13:27:29;;;;;;;38.03;20.95;;;13.10;94.20;;;;;;5035917;28;20404;-63
2023/02/23 13:29:58;;;;;;;43.33;21.92;;;13.00;94.20;;;;;;5032576;28;20477;-62
2023/02/23 13:32:32;;;;;;;41.85;21.48;;;13.00;94.40;;;;;;5031484;28;20033;-61
2023/02/23 13:35:20;;;;;;;40.10;21.63;;;12.90;94.20;;;;;;5037228;28;20037;-63
2023/02/23 13:37:53;;;;;;;40.47;21.38;;;12.80;94.30;;;;;;5032459;28;20535;-63
2023/02/23 13:40:35;;;;;;;40.05;22.30;;;12.80;94.50;;;;;;5038341;28;20028;-63
2023/02/23 13:43:22;;;;;;;43.42;22.08;;;12.80;94.50;;;;;;5035666;28;20033;-64
2023/02/23 13:46:10;;;;;;;39.38;22.13;;;12.70;94.50;;;;;;5030723;28;20514;-64
2023/02/23 13:49:33;;;;;;;41.83;21.98;;;12.70;94.40;;;;;;5033277;28;20584;-64
2023/02/23 13:52:19;;;;;;;44.70;21.65;;;12.60;94.40;;;;;;4929939;29;20513;-64
2023/02/23 13:54:57;;;;;;;51.53;24.63;;;12.50;94.70;;;;;;4929723;29;20503;-63
2023/02/23 13:57:26;;;;;;;50.22;22.75;;;12.50;94.90;;;;;;5005106;28;20128;-64
2023/02/23 13:59:52;;;;;;;51.80;25.48;;;12.40;95.10;;;;;;5012917;28;20029;-63
2023/02/23 14:02:39;;;;;;;46.22;24.45;;;12.40;95.20;;;;;;5034943;28;20108;-63
2023/02/23 14:05:19;;;;;;;59.65;31.92;;;12.40;95.30;;;;;;5035528;28;20040;-62
2023/02/23 14:07:52;;;;;;;46.60;25.00;;;12.30;95.30;;;;;;5026182;28;20037;-63
2023/02/23 14:10:24;;;;;;;54.08;29.88;;;12.20;95.40;;;;;;5026894;28;20033;-63
2023/02/23 14:13:11;;;;;;;51.47;27.08;;;12.20;95.60;;;;;;5030968;28;20040;-64
2023/02/23 14:15:37;;;;;;;46.13;24.77;;;12.10;95.80;;;;;;5035024;28;20036;-61